Terminal Aerodrome Forecast
Issued by NWS

Home | Current Version | Previous Version | Graphics & Text | Print | Product List | Glossary On
Versions: 1 2 3 4 5 6 7 8 9 10 11 12 13 14 15 16 17 18
000
FTUS43 KABR 272300
TAFMBG
TAF
KMBG 272338Z 2800/2824 VRB03KT P6SM SCT250
     FM281100 33010KT P6SM SCT150
     FM281700 31020G30KT P6SM SCT030=

USA.gov is the U.S. government's official web portal to all federal, state and local government web resources and services.